WetterOnline ( http://www.wetteronline.de )

Wetter aktuell Bamberg

Aktuelles Wetter: Bamberg (243m)

6-stündlich | Neueste Meldungen
Ortszeit Temperatur Wetter
Do, 21.06. 14:00 25.5° C wolkig
Do, 21.06. 8:00 20.1° C leicht bewölkt
Do, 21.06. 2:00 14.8° C wolkenlos
Mi, 20.06. 20:00 27.8° C wolkenlos
Mi, 20.06. 14:00 27.5° C fast wolkenlos
Mi, 20.06. 8:00 18.5° C leicht bewölkt
Mi, 20.06. 2:00 14.2° C wolkenlos
Di, 19.06. 20:00 23.3° C bedeckt
Ortszeit Temperatur Wetter
Do, 21.06. 19:30 21.0° C wolkig
Do, 21.06. 19:20 21.0° C wolkig
Do, 21.06. 19:10 21.1° C wolkig
Do, 21.06. 19:00 21.3° C fast wolkenlos
Do, 21.06. 18:50 21.3° C fast wolkenlos
Do, 21.06. 18:40 21.4° C wolkenlos
Do, 21.06. 18:30 22.4° C fast wolkenlos
Do, 21.06. 18:00 22.3° C leicht bewölkt
Do, 21.06. 17:30 21.5° C wolkig
Do, 21.06. 17:00 20.5° C bewölkt
Do, 21.06. 16:30 20.7° C bewölkt
Ortszeit Relative Feuchte Sichtweite
Do, 21.06. 14:00 42% 30 km
Do, 21.06. 8:00 75% 19 km
Do, 21.06. 2:00 98% 9 km
Mi, 20.06. 20:00 46% 60 km
Mi, 20.06. 14:00 42% 45 km
Mi, 20.06. 8:00 75% 24 km
Mi, 20.06. 2:00 96% 20 km
Di, 19.06. 20:00 56% 70 km
Ortszeit Relative Feuchte Sichtweite
Do, 21.06. 19:30 35% 50 km
Do, 21.06. 19:20 35% -
Do, 21.06. 19:10 36% -
Do, 21.06. 19:00 36% 35 km
Do, 21.06. 18:50 36% -
Do, 21.06. 18:40 35% -
Do, 21.06. 18:30 40% 40 km
Do, 21.06. 18:00 44% 35 km
Do, 21.06. 17:30 52% 35 km
Do, 21.06. 17:00 57% 40 km
Do, 21.06. 16:30 53% 45 km
Ortszeit Niederschlagsmenge Niederschlagsart
Do, 21.06. 14:00 0.0 l/m2 in 6 Std. -
Do, 21.06. 8:00 0.0 l/m2 in 12 Std. -
Do, 21.06. 2:00 0.0 l/m2 in 6 Std. -
Mi, 20.06. 20:00 0.0 l/m2 in 12 Std. -
Mi, 20.06. 14:00 0.0 l/m2 in 6 Std. -
Mi, 20.06. 8:00 0.0 l/m2 in 12 Std. -
Mi, 20.06. 2:00 0.0 l/m2 in 6 Std. -
Di, 19.06. 20:00 0.0 l/m2 in 12 Std. -
Ortszeit Niederschlagsmenge Niederschlagsart
Do, 21.06. 19:30 0.0 l/m2 in 1 Std. -
Do, 21.06. 19:20 keine Meldung -
Do, 21.06. 19:10 keine Meldung -
Do, 21.06. 19:00 0.0 l/m2 in 1 Std. -
Do, 21.06. 18:50 keine Meldung -
Do, 21.06. 18:40 keine Meldung -
Do, 21.06. 18:30 0.0 l/m2 in 1 Std. -
Do, 21.06. 18:00 0.0 l/m2 in 1 Std. -
Do, 21.06. 17:30 0.0 l/m2 in 1 Std. -
Do, 21.06. 17:00 0.0 l/m2 in 1 Std. Niederschlag
Do, 21.06. 16:30 0.0 l/m2 in 1 Std. -
Ortszeit Stärke Spitze Richtung
km/h Bft. km/h Grad Sektor
Do, 21.06. 14:00 25 4 47 280° W
Do, 21.06. 8:00 6 1 9 180° S
Do, 21.06. 2:00 2 1 15 110° O
Mi, 20.06. 20:00 11 2 22 290° W
Mi, 20.06. 14:00 7 2 29 140° SO
Mi, 20.06. 8:00 2 1 4 50° NO
Mi, 20.06. 2:00 4 1 18 70° O
Di, 19.06. 20:00 9 2 26 310° NW
Ortszeit Stärke Spitze Richtung
km/h Bft. km/h Grad Sektor
Do, 21.06. 19:30 18 3 40 310° NW
Do, 21.06. 19:20 18 3 - 310° NW
Do, 21.06. 19:10 25 4 - 300° NW
Do, 21.06. 19:00 25 4 47 300° NW
Do, 21.06. 18:50 25 4 - 300° NW
Do, 21.06. 18:40 26 4 - 300° NW
Do, 21.06. 18:30 25 4 43 280° W
Do, 21.06. 18:00 24 4 50 300° NW
Do, 21.06. 17:30 26 4 50 290° W
Do, 21.06. 17:00 19 3 52 300° NW
Do, 21.06. 16:30 22 4 52 300° NW
Ortszeit Untergrenze Bedeckung Gattung
total tief tief mittel hoch
Do, 21.06. 14:00 1800 m 7/8 3/8 - - -
Do, 21.06. 8:00 1800 m 1/8 4/8 - - -
Do, 21.06. 2:00 - 0/8 0/8 - - -
Mi, 20.06. 20:00 - 0/8 0/8 - - -
Mi, 20.06. 14:00 1500 m 1/8 - - - -
Mi, 20.06. 8:00 1290 m 2/8 5/8 - - -
Mi, 20.06. 2:00 - 0/8 0/8 - - -
Di, 19.06. 20:00 1800 m 8/8 8/8 - - -
Ortszeit Bedeckungsgrad in Achtel und Wolkenuntergrenze
Do, 21.06. 19:30 8(8100m)
Do, 21.06. 19:20 8(8100m)
Do, 21.06. 19:10 7(8100m)
Do, 21.06. 19:00 2(8100m)
Do, 21.06. 18:50 2(8100m)
Do, 21.06. 18:40 keine Wolken
Do, 21.06. 18:30 1(1500m)
Do, 21.06. 18:00 1(1440m) 3(8700m)
Do, 21.06. 17:30 1(1320m) 8(5400m) 8(6000m)
Do, 21.06. 17:00 5(1800m) 7(2400m) 8(3000m)
Do, 21.06. 16:30 4(2400m) 6(3000m) 8(6900m)
Ortszeit Luftdruck NN (hPa) Tendenz (hPa in 3 Std.)
Do, 21.06. 14:00 1013 + 0,7
Do, 21.06. 8:00 1015 - 0,6
Do, 21.06. 2:00 1017 - 0,7
Mi, 20.06. 20:00 1017 - 1,3
Mi, 20.06. 14:00 1020 - 1,5
Mi, 20.06. 8:00 1023 - 0,3
Mi, 20.06. 2:00 1024 + 0,1
Di, 19.06. 20:00 1023 - 0,1
Ortszeit Luftdruck NN (hPa) Tendenz (hPa in 3 Std.)
Do, 21.06. 19:30 1016 + 0,5
Do, 21.06. 19:20 1016 keine Meldung
Do, 21.06. 19:10 1016 keine Meldung
Do, 21.06. 19:00 1015 + 0,2
Do, 21.06. 18:50 1015 keine Meldung
Do, 21.06. 18:40 1015 keine Meldung
Do, 21.06. 18:30 1015 + 0,8
Do, 21.06. 18:00 1015 + 1,2
Do, 21.06. 17:30 1015 + 1,3
Do, 21.06. 17:00 1015 + 1,6
Do, 21.06. 16:30 1015 + 1,6
Ortszeit Schneehöhe (cm)
Do, 21.06. 14:00 -
Do, 21.06. 8:00 -
Do, 21.06. 2:00 -
Mi, 20.06. 20:00 -
Mi, 20.06. 14:00 -
Mi, 20.06. 8:00 -
Mi, 20.06. 2:00 -
Di, 19.06. 20:00 -
Ortszeit Schneehöhe (cm)
Do, 21.06. 19:30 -
Do, 21.06. 19:20 -
Do, 21.06. 19:10 -
Do, 21.06. 19:00 -
Do, 21.06. 18:50 -
Do, 21.06. 18:40 -
Do, 21.06. 18:30 -
Do, 21.06. 18:00 -
Do, 21.06. 17:30 -
Do, 21.06. 17:00 -
Do, 21.06. 16:30 -
Link zu dieser Seite / Seite empfehlen

Das Wetter in ...